createdAt,value
2018-08-09T00:00:19.108Z,7.60
2018-08-09T00:02:47.363Z,8.33
2018-08-09T00:05:15.612Z,8.00
2018-08-09T00:07:44.038Z,7.40
2018-08-09T00:10:12.339Z,8.00
2018-08-09T00:12:40.627Z,8.33
2018-08-09T00:15:08.890Z,8.63
2018-08-09T00:17:37.154Z,8.40
2018-08-09T00:20:05.689Z,8.67
2018-08-09T00:22:33.922Z,8.23
2018-08-09T00:25:02.159Z,7.93
2018-08-09T00:27:30.545Z,8.63
2018-08-09T00:29:58.782Z,8.10
2018-08-09T00:32:27.031Z,8.77
2018-08-09T00:34:55.263Z,8.73
2018-08-09T00:37:23.499Z,8.03
2018-08-09T00:39:51.735Z,9.03
2018-08-09T00:42:19.965Z,8.97
2018-08-09T00:44:48.426Z,9.00
2018-08-09T00:47:16.710Z,8.53
2018-08-09T00:49:45.058Z,8.87
2018-08-09T00:52:13.313Z,8.43
2018-08-09T00:54:41.588Z,8.90
2018-08-09T00:57:09.858Z,8.23
2018-08-09T00:59:38.138Z,8.20
2018-08-09T01:02:06.424Z,8.20
2018-08-09T01:04:34.698Z,8.77
2018-08-09T01:07:02.995Z,9.17
2018-08-09T01:09:31.289Z,8.50
2018-08-09T01:11:59.563Z,8.83
2018-08-09T01:14:27.862Z,8.87
2018-08-09T01:17:08.098Z,8.40
2018-08-09T01:19:36.395Z,9.23
2018-08-09T01:22:04.631Z,8.97
2018-08-09T01:24:32.873Z,9.13
2018-08-09T01:27:11.858Z,8.97
2018-08-09T01:29:40.822Z,9.20
2018-08-09T01:32:09.214Z,8.63
2018-08-09T01:34:37.488Z,8.93
2018-08-09T01:37:05.791Z,9.53
2018-08-09T01:39:34.042Z,9.53
2018-08-09T01:42:13.737Z,9.07
2018-08-09T01:44:42.002Z,8.30
2018-08-09T01:47:10.265Z,9.07
2018-08-09T01:49:38.539Z,8.97
2018-08-09T01:52:06.797Z,9.73
2018-08-09T01:54:35.069Z,9.20
2018-08-09T01:57:03.332Z,9.47
2018-08-09T01:59:31.597Z,9.17
2018-08-09T02:02:06.593Z,8.63
2018-08-09T02:04:34.846Z,8.70
2018-08-09T02:09:54.031Z,9.30
2018-08-09T02:12:22.306Z,9.90
2018-08-09T02:14:50.574Z,9.30
2018-08-09T02:17:18.850Z,9.37
2018-08-09T02:19:47.121Z,8.97
2018-08-09T02:22:15.430Z,9.37
2018-08-09T02:24:43.689Z,9.90
2018-08-09T02:27:11.957Z,10.30
2018-08-09T02:29:40.319Z,10.20
2018-08-09T02:32:08.604Z,9.80
2018-08-09T02:34:36.883Z,9.90
2018-08-09T02:37:05.167Z,9.80
2018-08-09T02:39:33.440Z,10.10
2018-08-09T02:42:01.831Z,10.73
2018-08-09T02:44:30.112Z,11.10
2018-08-09T02:46:58.374Z,9.73
2018-08-09T02:49:26.642Z,10.63
2018-08-09T02:51:54.891Z,10.67
2018-08-09T02:54:23.250Z,10.27
2018-08-09T02:56:51.530Z,10.83
2018-08-09T02:59:19.810Z,9.90
2018-08-09T03:01:48.136Z,10.23
2018-08-09T03:04:16.409Z,9.90
2018-08-09T03:06:44.692Z,10.90
2018-08-09T03:09:13.936Z,9.97
2018-08-09T03:11:43.139Z,10.60
2018-08-09T03:14:11.547Z,10.73
2018-08-09T03:16:39.834Z,9.87
2018-08-09T03:19:08.123Z,10.73
2018-08-09T03:21:36.402Z,9.70
2018-08-09T03:24:04.772Z,11.23
2018-08-09T03:26:33.042Z,10.40
2018-08-09T03:29:01.347Z,10.47
2018-08-09T03:31:29.657Z,10.00
2018-08-09T03:33:57.969Z,10.83
2018-08-09T03:36:26.234Z,10.97
2018-08-09T03:38:54.507Z,11.00
2018-08-09T03:41:22.775Z,10.00
2018-08-09T03:43:51.071Z,11.23
2018-08-09T03:46:19.344Z,10.70
2018-08-09T03:48:47.643Z,11.33
2018-08-09T03:51:15.925Z,10.97
2018-08-09T03:53:44.204Z,11.43
2018-08-09T03:56:12.466Z,11.87
2018-08-09T03:58:40.714Z,11.00
2018-08-09T04:01:09.015Z,10.70
2018-08-09T04:03:37.269Z,10.90
2018-08-09T04:06:05.582Z,11.97
2018-08-09T04:08:33.982Z,11.37
2018-08-09T04:11:02.260Z,11.40
2018-08-09T04:13:30.512Z,12.00
2018-08-09T04:15:58.779Z,11.10
2018-08-09T04:18:27.043Z,10.90
2018-08-09T04:20:55.309Z,10.80
2018-08-09T04:23:23.570Z,11.43
2018-08-09T04:25:51.844Z,11.43
2018-08-09T04:28:20.096Z,11.30
2018-08-09T04:30:50.015Z,11.97
2018-08-09T04:33:18.365Z,12.27
2018-08-09T04:35:46.713Z,12.50
2018-08-09T04:38:15.262Z,12.40
2018-08-09T04:40:43.553Z,11.97
2018-08-09T04:43:11.962Z,11.80
2018-08-09T04:45:40.365Z,11.53
2018-08-09T04:48:08.649Z,11.33
2018-08-09T04:50:37.007Z,11.60
2018-08-09T04:53:05.292Z,11.83
2018-08-09T04:55:33.584Z,11.63
2018-08-09T04:58:01.901Z,12.83
2018-08-09T05:00:30.168Z,12.00
2018-08-09T05:02:58.444Z,12.20
2018-08-09T05:05:26.721Z,12.30
2018-08-09T05:14:00.051Z,11.33
2018-08-09T05:16:28.381Z,11.80
2018-08-09T05:18:56.639Z,12.30
2018-08-09T05:21:24.917Z,13.30
2018-08-09T05:23:53.184Z,11.90
2018-08-09T05:26:21.459Z,13.57
2018-08-09T05:28:49.719Z,13.87
2018-08-09T05:31:17.989Z,14.97
2018-08-09T05:33:46.431Z,13.57
2018-08-09T05:36:14.697Z,13.20
2018-08-09T05:38:42.972Z,14.60
2018-08-09T05:41:11.238Z,13.90
2018-08-09T05:43:39.501Z,14.27
2018-08-09T05:46:08.178Z,14.53
2018-08-09T05:48:36.542Z,14.90
2018-08-09T05:51:04.847Z,15.20
2018-08-09T05:53:33.141Z,15.20
2018-08-09T05:56:15.606Z,14.87
2018-08-09T05:58:43.880Z,14.30
2018-08-09T06:01:12.206Z,13.67
2018-08-09T06:03:40.641Z,14.50
2018-08-09T06:06:09.823Z,13.53
2018-08-09T06:08:38.107Z,14.30
2018-08-09T06:11:06.526Z,14.07
2018-08-09T06:13:34.884Z,13.13
2018-08-09T06:16:03.138Z,13.97
2018-08-09T06:18:31.446Z,12.70
2018-08-09T06:20:59.834Z,12.17
2018-08-09T06:23:28.132Z,12.77
2018-08-09T06:25:56.431Z,11.17
2018-08-09T06:28:24.723Z,10.87
2018-08-09T06:30:53.061Z,10.23
2018-08-09T06:33:21.402Z,11.37
2018-08-09T06:35:49.705Z,10.33
2018-08-09T06:38:18.042Z,10.30
2018-08-09T06:40:46.312Z,10.03
2018-08-09T06:43:14.591Z,10.23
2018-08-09T06:45:42.890Z,10.17
2018-08-09T06:48:11.279Z,9.80
2018-08-09T06:50:39.582Z,9.70
2018-08-09T06:53:07.978Z,9.10
2018-08-09T06:58:26.940Z,8.93
2018-08-09T07:03:46.359Z,9.13
2018-08-09T07:06:14.652Z,8.60
2018-08-09T07:08:42.953Z,8.27
2018-08-09T07:11:11.257Z,9.07
2018-08-09T07:13:39.535Z,8.37
2018-08-09T07:16:07.844Z,8.27
2018-08-09T07:18:36.144Z,8.43
2018-08-09T07:21:04.422Z,9.23
2018-08-09T07:23:32.790Z,9.00
2018-08-09T07:26:01.081Z,8.10
2018-08-09T07:28:32.218Z,8.03
2018-08-09T07:31:00.538Z,8.97
2018-08-09T07:33:28.838Z,8.15
2018-08-09T07:35:57.394Z,8.00
2018-08-09T07:38:26.564Z,8.00
2018-08-09T07:40:55.117Z,7.62
2018-08-09T07:43:23.494Z,8.20
2018-08-09T07:45:51.781Z,8.13
2018-08-09T07:48:20.978Z,9.35
2018-08-09T07:50:49.488Z,9.20
2018-08-09T07:53:18.476Z,9.95
2018-08-09T07:55:47.387Z,10.45
2018-08-09T07:58:16.511Z,9.65
2018-08-09T08:00:45.447Z,9.80
2018-08-09T08:03:14.483Z,8.58
2018-08-09T08:05:43.980Z,8.53
2018-08-09T08:08:12.946Z,8.70
2018-08-09T08:10:42.017Z,7.67
2018-08-09T08:13:11.219Z,8.00
2018-08-09T08:15:40.194Z,7.08
2018-08-09T08:18:09.201Z,7.40
2018-08-09T08:20:38.212Z,7.15
2018-08-09T08:23:07.280Z,7.15
2018-08-09T08:25:36.299Z,7.72
2018-08-09T08:28:05.542Z,7.60
2018-08-09T08:30:34.753Z,7.08
2018-08-09T08:33:04.335Z,7.45
2018-08-09T08:35:33.310Z,6.70
2018-08-09T08:38:02.486Z,6.95
2018-08-09T08:40:31.810Z,7.58
2018-08-09T08:43:01.417Z,7.33
2018-08-09T08:45:30.324Z,6.97
2018-08-09T08:47:59.200Z,6.83
2018-08-09T08:50:28.124Z,6.90
2018-08-09T08:52:57.126Z,6.83
2018-08-09T08:55:26.305Z,7.05
2018-08-09T08:57:55.366Z,6.50
2018-08-09T09:00:24.167Z,6.90
2018-08-09T09:02:52.946Z,7.03
2018-08-09T09:05:22.036Z,6.83
2018-08-09T09:08:02.335Z,7.28
2018-08-09T09:10:32.537Z,7.20
2018-08-09T09:13:01.965Z,6.55
2018-08-09T09:15:30.891Z,7.17
2018-08-09T09:18:00.103Z,6.85
2018-08-09T09:20:28.942Z,6.62
2018-08-09T09:22:57.985Z,7.25
2018-08-09T09:25:26.977Z,6.03
2018-08-09T09:27:55.944Z,6.60
2018-08-09T09:30:24.843Z,6.22
2018-08-09T09:32:53.691Z,6.42
2018-08-09T09:35:22.536Z,6.42
2018-08-09T09:37:51.648Z,5.28
2018-08-09T09:40:20.564Z,5.90
2018-08-09T09:42:49.420Z,5.70
2018-08-09T09:45:18.297Z,5.72
2018-08-09T09:47:47.159Z,5.87
2018-08-09T09:50:16.123Z,5.80
2018-08-09T09:52:45.337Z,5.40
2018-08-09T09:55:14.249Z,5.58
2018-08-09T09:57:43.212Z,5.17
2018-08-09T10:00:17.481Z,5.30
2018-08-09T10:02:46.759Z,5.47
2018-08-09T10:05:16.128Z,5.15
2018-08-09T10:07:45.183Z,5.62
2018-08-09T10:10:14.663Z,5.20
2018-08-09T10:12:44.048Z,5.28
2018-08-09T10:15:13.114Z,5.67
2018-08-09T10:17:41.990Z,5.10
2018-08-09T10:20:11.018Z,5.55
2018-08-09T10:22:39.746Z,5.12
2018-08-09T10:25:09.187Z,5.20
2018-08-09T10:27:38.266Z,5.37
2018-08-09T10:30:07.976Z,5.10
2018-08-09T10:32:37.030Z,4.90
2018-08-09T10:35:06.020Z,4.62
2018-08-09T10:37:34.985Z,4.72
2018-08-09T10:40:04.094Z,4.95
2018-08-09T10:42:33.102Z,4.80
2018-08-09T10:45:02.020Z,4.87
2018-08-09T10:47:31.027Z,4.92
2018-08-09T10:49:59.906Z,4.42
2018-08-09T10:52:28.766Z,4.15
2018-08-09T10:54:57.645Z,4.28
2018-08-09T10:57:25.958Z,4.20
2018-08-09T10:59:55.135Z,4.65
2018-08-09T11:02:24.450Z,4.67
2018-08-09T11:04:53.322Z,4.92
2018-08-09T11:07:22.553Z,4.78
2018-08-09T11:09:51.544Z,5.00
2018-08-09T11:12:22.374Z,4.70
2018-08-09T11:14:51.273Z,4.40
2018-08-09T11:17:20.207Z,4.33
2018-08-09T11:19:49.163Z,4.90
2018-08-09T11:22:17.875Z,4.65
2018-08-09T11:24:46.785Z,4.90
2018-08-09T11:27:15.641Z,4.70
2018-08-09T11:29:44.613Z,5.08
2018-08-09T11:32:13.581Z,5.12
2018-08-09T11:34:42.430Z,4.90
2018-08-09T11:37:11.331Z,4.80
2018-08-09T11:39:40.156Z,4.42
2018-08-09T11:42:08.984Z,4.75
2018-08-09T11:44:38.349Z,5.15
2018-08-09T11:47:09.307Z,5.08
2018-08-09T11:49:38.093Z,4.50
2018-08-09T11:52:07.139Z,4.70
2018-08-09T11:54:36.137Z,4.35
2018-08-09T11:57:05.061Z,4.20
2018-08-09T11:59:34.215Z,4.55
2018-08-09T12:02:03.260Z,4.33
2018-08-09T12:04:32.864Z,4.60
2018-08-09T12:07:02.081Z,4.50
2018-08-09T12:09:30.994Z,4.00
2018-08-09T12:12:00.081Z,4.15
2018-08-09T12:14:29.339Z,4.17
2018-08-09T12:19:49.800Z,4.40
2018-08-09T12:22:18.632Z,4.30
2018-08-09T12:24:47.574Z,3.45
2018-08-09T12:27:16.490Z,4.08
2018-08-09T12:29:45.519Z,3.77
2018-08-09T12:32:14.760Z,4.10
2018-08-09T12:34:43.897Z,3.80
2018-08-09T12:37:12.956Z,3.77
2018-08-09T12:39:41.991Z,3.67
2018-08-09T12:42:10.964Z,3.67
2018-08-09T12:44:40.234Z,3.70
2018-08-09T12:47:09.403Z,3.62
2018-08-09T12:49:38.379Z,3.10
2018-08-09T12:52:07.656Z,3.47
2018-08-09T12:54:36.676Z,3.50
2018-08-09T12:57:07.211Z,3.75
2018-08-09T12:59:36.363Z,3.70
2018-08-09T13:02:05.324Z,3.27
2018-08-09T13:04:34.196Z,3.33
2018-08-09T13:07:03.341Z,3.30
2018-08-09T13:09:32.317Z,3.27
2018-08-09T13:12:01.711Z,3.22
2018-08-09T13:14:30.872Z,3.60
2018-08-09T13:16:59.924Z,3.27
2018-08-09T13:19:35.281Z,2.90
2018-08-09T13:22:03.647Z,3.33
2018-08-09T13:24:33.026Z,3.40
2018-08-09T13:27:02.169Z,2.90
2018-08-09T13:29:31.455Z,3.55
2018-08-09T13:32:00.739Z,3.30
2018-08-09T13:34:29.702Z,3.40
2018-08-09T13:36:58.770Z,3.25
2018-08-09T13:39:27.752Z,3.10
2018-08-09T13:41:56.902Z,3.00
2018-08-09T13:44:26.030Z,3.08
2018-08-09T13:46:55.238Z,2.92
2018-08-09T13:49:24.444Z,3.10
2018-08-09T13:51:53.565Z,3.30
2018-08-09T13:54:22.861Z,3.27
2018-08-09T13:56:51.910Z,3.47
2018-08-09T13:59:21.028Z,3.37
2018-08-09T14:01:50.149Z,3.83
2018-08-09T14:04:18.683Z,3.17
2018-08-09T14:06:47.084Z,3.47
2018-08-09T14:09:16.228Z,3.30
2018-08-09T14:11:45.113Z,3.30
2018-08-09T14:14:14.147Z,3.22
2018-08-09T14:16:43.103Z,3.00
2018-08-09T14:19:11.910Z,3.10
2018-08-09T14:21:40.996Z,3.00
2018-08-09T14:24:10.382Z,3.00
2018-08-09T14:26:39.585Z,3.02
2018-08-09T14:29:09.215Z,3.62
2018-08-09T14:31:38.826Z,3.12
2018-08-09T14:34:08.205Z,3.30
2018-08-09T14:36:37.197Z,3.00
2018-08-09T14:39:09.275Z,3.35
2018-08-09T14:41:38.651Z,3.17
2018-08-09T14:44:07.969Z,2.90
2018-08-09T14:46:36.935Z,2.83
2018-08-09T14:49:05.847Z,3.25
2018-08-09T14:51:34.948Z,3.37
2018-08-09T14:54:04.064Z,3.33
2018-08-09T14:56:33.080Z,2.92
2018-08-09T14:59:02.359Z,3.17
2018-08-09T15:01:31.416Z,2.98
2018-08-09T15:04:00.477Z,3.22
2018-08-09T15:06:29.356Z,3.60
2018-08-09T15:08:58.463Z,3.37
2018-08-09T15:11:27.317Z,3.42
2018-08-09T15:13:56.417Z,3.50
2018-08-09T15:16:25.412Z,3.37
2018-08-09T15:18:54.528Z,3.80
2018-08-09T15:21:23.515Z,3.70
2018-08-09T15:23:52.478Z,4.00
2018-08-09T15:26:22.305Z,4.05
2018-08-09T15:28:51.222Z,9.43
2018-08-09T15:31:19.846Z,8.45
2018-08-09T15:33:48.893Z,6.62
2018-08-09T15:36:17.932Z,5.42
2018-08-09T15:38:46.896Z,4.55
2018-08-09T15:41:16.030Z,3.90
2018-08-09T15:43:44.937Z,4.15
2018-08-09T15:46:13.870Z,3.70
2018-08-09T15:48:42.911Z,3.43
2018-08-09T15:51:12.208Z,3.97
2018-08-09T15:53:40.497Z,3.70
2018-08-09T15:56:09.179Z,3.57
2018-08-09T15:58:38.031Z,3.23
2018-08-09T16:01:06.950Z,3.50
2018-08-09T16:03:35.740Z,3.40
2018-08-09T16:06:04.773Z,3.00
2018-08-09T16:08:33.086Z,2.73
2018-08-09T16:11:01.365Z,3.10
2018-08-09T16:13:29.627Z,3.00
2018-08-09T16:15:57.913Z,2.97
2018-08-09T16:18:26.183Z,3.23
2018-08-09T16:20:54.466Z,2.90
2018-08-09T16:23:22.738Z,2.70
2018-08-09T16:25:51.100Z,2.67
2018-08-09T16:28:19.811Z,2.63
2018-08-09T16:30:48.077Z,2.97
2018-08-09T16:33:17.014Z,2.97
2018-08-09T16:35:45.315Z,2.43
2018-08-09T16:38:13.615Z,2.27
2018-08-09T16:40:42.071Z,2.97
2018-08-09T16:43:10.378Z,2.90
2018-08-09T16:45:38.806Z,2.97
2018-08-09T16:48:07.136Z,3.20
2018-08-09T16:50:35.633Z,2.80
2018-08-09T16:53:03.918Z,2.90
2018-08-09T16:55:32.205Z,2.63
2018-08-09T16:58:00.502Z,2.73
2018-08-09T17:03:19.776Z,2.80
2018-08-09T17:05:48.037Z,2.80
2018-08-09T17:08:16.379Z,2.93
2018-08-09T17:10:44.656Z,2.70
2018-08-09T17:13:13.082Z,2.70
2018-08-09T17:15:41.337Z,2.80
2018-08-09T17:18:09.636Z,2.50
2018-08-09T17:20:37.891Z,2.83
2018-08-09T17:23:06.294Z,2.60
2018-08-09T17:25:34.584Z,2.80
2018-08-09T17:28:02.854Z,2.90
2018-08-09T17:30:31.124Z,2.30
2018-08-09T17:32:59.538Z,2.67
2018-08-09T17:35:27.809Z,2.70
2018-08-09T17:37:56.242Z,2.93
2018-08-09T17:40:29.802Z,2.60
2018-08-09T17:42:58.971Z,2.90
2018-08-09T17:45:29.636Z,2.93
2018-08-09T17:47:58.087Z,2.50
2018-08-09T17:50:26.374Z,2.37
2018-08-09T17:52:56.232Z,2.63
2018-08-09T17:55:24.480Z,2.47
2018-08-09T17:57:52.766Z,2.80
2018-08-09T18:00:24.368Z,2.60
2018-08-09T18:02:53.069Z,2.70
2018-08-09T18:05:21.470Z,3.10
2018-08-09T18:07:49.900Z,3.00
2018-08-09T18:10:31.074Z,2.80
2018-08-09T18:12:59.380Z,2.67
2018-08-09T18:15:28.985Z,2.70
2018-08-09T18:17:57.847Z,2.93
2018-08-09T18:20:28.189Z,3.00
2018-08-09T18:22:56.766Z,2.80
2018-08-09T18:25:25.184Z,2.90
2018-08-09T18:27:53.530Z,2.57
2018-08-09T18:30:21.935Z,2.83
2018-08-09T18:32:50.350Z,2.57
2018-08-09T18:35:19.370Z,2.40
2018-08-09T18:37:47.723Z,3.00
2018-08-09T18:40:17.626Z,2.47
2018-08-09T18:42:46.091Z,3.13
2018-08-09T18:45:14.388Z,2.80
2018-08-09T18:47:42.679Z,2.50
2018-08-09T18:50:13.945Z,2.97
2018-08-09T18:52:42.510Z,2.40
2018-08-09T18:55:11.551Z,2.90
2018-08-09T18:57:40.194Z,2.43
2018-08-09T19:00:13.044Z,2.93
2018-08-09T19:02:41.314Z,2.73
2018-08-09T19:05:09.835Z,2.90
2018-08-09T19:07:38.333Z,2.60
2018-08-09T19:10:09.876Z,2.77
2018-08-09T19:12:38.258Z,2.50
2018-08-09T19:15:07.481Z,2.43
2018-08-09T19:17:35.978Z,2.57
2018-08-09T19:20:07.444Z,2.63
2018-08-09T19:22:36.041Z,2.37
2018-08-09T19:25:05.471Z,2.50
2018-08-09T19:27:33.819Z,2.60
2018-08-09T19:30:02.130Z,2.63
2018-08-09T19:32:30.403Z,2.37
2018-08-09T19:34:58.961Z,2.60
2018-08-09T19:37:27.265Z,2.30
2018-08-09T19:39:55.522Z,2.60
2018-08-09T19:42:24.344Z,2.33
2018-08-09T19:44:53.326Z,2.40
2018-08-09T19:47:21.674Z,2.57
2018-08-09T19:49:49.957Z,2.20
2018-08-09T19:52:18.287Z,2.47
2018-08-09T19:54:46.632Z,2.03
2018-08-09T19:57:15.233Z,2.90
2018-08-09T19:59:43.930Z,3.00
2018-08-09T20:02:12.207Z,3.00
2018-08-09T20:04:40.468Z,2.60
2018-08-09T20:07:08.773Z,2.53
2018-08-09T20:09:37.034Z,3.13
2018-08-09T20:12:05.846Z,2.70
2018-08-09T20:14:34.289Z,2.80
2018-08-09T20:17:02.730Z,2.63
2018-08-09T20:19:31.279Z,2.97
2018-08-09T20:22:00.506Z,2.60
2018-08-09T20:24:28.872Z,2.60
2018-08-09T20:26:57.151Z,2.87
2018-08-09T20:29:25.430Z,2.87
2018-08-09T20:31:54.837Z,3.27
2018-08-09T20:34:23.102Z,2.70
2018-08-09T20:36:51.525Z,3.00
2018-08-09T20:39:19.826Z,3.00
2018-08-09T20:41:48.339Z,2.73
2018-08-09T20:44:16.676Z,2.93
2018-08-09T20:46:45.189Z,2.93
2018-08-09T20:49:13.652Z,2.30
2018-08-09T20:51:41.926Z,2.83
2018-08-09T20:54:11.048Z,3.17
2018-08-09T20:56:39.708Z,2.97
2018-08-09T20:59:07.979Z,3.00
2018-08-09T21:01:36.284Z,2.50
2018-08-09T21:04:04.843Z,2.60
2018-08-09T21:06:33.126Z,2.60
2018-08-09T21:09:01.387Z,2.40
2018-08-09T21:11:29.674Z,2.33
2018-08-09T21:13:58.557Z,2.40
2018-08-09T21:16:27.019Z,2.70
2018-08-09T21:18:55.386Z,2.77
2018-08-09T21:21:23.662Z,2.60
2018-08-09T21:23:52.094Z,2.50
2018-08-09T21:26:20.587Z,2.60
2018-08-09T21:28:48.943Z,2.63
2018-08-09T21:31:17.202Z,2.50
2018-08-09T21:33:45.457Z,2.30
2018-08-09T21:36:25.496Z,3.00
2018-08-09T21:38:53.874Z,2.50
2018-08-09T21:41:22.120Z,2.67
2018-08-09T21:43:50.954Z,2.90
2018-08-09T21:46:19.219Z,2.60
2018-08-09T21:48:47.494Z,2.50
2018-08-09T21:51:16.053Z,2.80
2018-08-09T21:53:44.356Z,2.83
2018-08-09T21:56:12.666Z,2.80
2018-08-09T21:58:40.946Z,2.97
2018-08-09T22:01:09.678Z,2.50
2018-08-09T22:03:38.622Z,2.70
2018-08-09T22:06:12.254Z,3.03
2018-08-09T22:08:45.839Z,2.93
2018-08-09T22:11:19.604Z,3.10
2018-08-09T22:13:53.318Z,2.30
2018-08-09T22:16:27.142Z,2.70
2018-08-09T22:19:00.854Z,2.60
2018-08-09T22:21:34.662Z,2.70
2018-08-09T22:24:03.055Z,2.50
2018-08-09T22:26:31.326Z,2.07
2018-08-09T22:28:59.602Z,2.07
2018-08-09T22:31:27.870Z,2.43
2018-08-09T22:33:56.162Z,2.90
2018-08-09T22:36:24.442Z,2.13
2018-08-09T22:38:52.814Z,2.27
2018-08-09T22:41:21.075Z,2.20
2018-08-09T22:43:49.371Z,2.13
2018-08-09T22:46:17.638Z,2.03
2018-08-09T22:48:45.907Z,2.33
2018-08-09T22:51:14.294Z,2.00
2018-08-09T22:53:42.569Z,2.03
2018-08-09T22:56:29.935Z,2.30
2018-08-09T22:58:58.196Z,2.43
2018-08-09T23:01:26.466Z,2.37
2018-08-09T23:03:54.737Z,2.10
2018-08-09T23:06:23.005Z,2.30
2018-08-09T23:08:51.300Z,2.13
2018-08-09T23:11:19.925Z,2.30
2018-08-09T23:13:48.186Z,2.30
2018-08-09T23:16:16.453Z,2.30
2018-08-09T23:18:44.758Z,2.13
2018-08-09T23:21:13.007Z,2.00
2018-08-09T23:23:41.301Z,1.90
2018-08-09T23:26:09.567Z,2.03
2018-08-09T23:28:37.831Z,1.90
2018-08-09T23:31:06.111Z,2.20
2018-08-09T23:33:34.398Z,2.10
2018-08-09T23:36:02.682Z,2.00
2018-08-09T23:38:30.952Z,1.97
2018-08-09T23:40:59.308Z,2.10
2018-08-09T23:43:27.586Z,1.70
2018-08-09T23:45:55.863Z,1.80
2018-08-09T23:48:24.153Z,1.60
2018-08-09T23:50:52.456Z,1.73
2018-08-09T23:53:20.754Z,1.57
2018-08-09T23:55:49.042Z,1.63
2018-08-09T23:58:17.347Z,1.80
